Time;durP1;ratioP1;P1;durP2;ratioP2;P2;SDS_P1;SDS_P2;PMS_P1;PMS_P2;Temp;Humidity;BMP_temperature;BMP_pressure;BME280_temperature;BME280_humidity;BME280_pressure;Samples;Min_cycle;Max_cycle;Signal;HPM_P1;HPM_P2
2023/10/10 00:00:47;;;;;;;29.80;18.00;;;;;;;6.57;92.08;101108.64;106080;1260;100458;-82
2023/10/10 00:03:40;;;;;;;27.30;18.40;;;;;;;6.55;92.37;101112.20;106208;1266;98937;-83
2023/10/10 00:06:28;;;;;;;27.60;18.00;;;;;;;6.54;92.53;101109.42;106099;1261;96608;-83
2023/10/10 00:09:13;;;;;;;31.40;18.90;;;;;;;6.54;92.67;101106.26;106469;1264;97494;-84
2023/10/10 00:11:58;;;;;;;29.90;19.40;;;;;;;6.55;93.03;101101.87;106151;1267;101323;-82
2023/10/10 00:14:50;;;;;;;33.20;20.70;;;;;;;6.57;93.24;101103.77;105992;1266;99033;-83
2023/10/10 00:17:36;;;;;;;27.90;17.70;;;;;;;6.59;93.34;101102.70;106079;1260;97722;-83
2023/10/10 00:20:24;;;;;;;31.90;20.00;;;;;;;6.60;93.64;101102.04;106011;1261;97657;-81
2023/10/10 00:23:11;;;;;;;32.20;20.30;;;;;;;6.62;93.70;101104.58;106189;1266;96677;-82
2023/10/10 00:25:57;;;;;;;29.90;19.10;;;;;;;6.63;93.85;101101.59;106001;1260;99975;-84
2023/10/10 00:28:45;;;;;;;34.60;22.00;;;;;;;6.65;93.90;101100.69;106018;1266;100600;-82
2023/10/10 00:31:31;;;;;;;30.60;20.50;;;;;;;6.67;93.62;101103.57;106075;1261;99046;-82
2023/10/10 00:34:18;;;;;;;30.50;20.10;;;;;;;6.65;93.43;101100.52;106192;1263;96731;-82
2023/10/10 00:37:08;;;;;;;29.90;19.90;;;;;;;6.64;93.18;101099.95;106189;1265;96415;-81
2023/10/10 00:39:53;;;;;;;29.90;19.50;;;;;;;6.60;92.91;101099.58;106053;1264;101358;-82
2023/10/10 00:42:42;;;;;;;29.00;19.70;;;;;;;6.55;92.59;101103.99;106109;1260;99165;-82
2023/10/10 00:45:32;;;;;;;27.90;18.10;;;;;;;6.50;92.70;101104.30;106050;1266;97793;-84
2023/10/10 00:48:29;;;;;;;28.60;18.50;;;;;;;6.45;92.56;101105.11;106024;1266;96701;-83
2023/10/10 00:51:21;;;;;;;25.10;17.60;;;;;;;6.40;92.37;101101.23;106205;1263;97068;-82
2023/10/10 00:54:16;;;;;;;;;;;;;;;6.35;92.07;101098.30;106088;1261;100030;-84
2023/10/10 00:57:05;;;;;;;28.90;17.60;;;;;;;6.29;91.93;101097.30;106254;1267;100996;-81
2023/10/10 00:59:54;;;;;;;26.30;17.70;;;;;;;6.26;91.98;101097.42;106082;1264;98709;-81
2023/10/10 01:02:42;;;;;;;26.70;17.10;;;;;;;6.24;91.85;101095.69;106294;1260;96673;-83
2023/10/10 01:05:42;;;;;;;31.30;18.30;;;;;;;6.21;92.16;101091.17;106173;1259;96530;-82
2023/10/10 01:08:30;;;;;;;26.60;17.80;;;;;;;6.19;92.21;101086.95;106054;1264;99993;-82
2023/10/10 01:11:16;;;;;;;25.00;17.10;;;;;;;6.18;92.09;101084.37;106091;1260;99288;-82
2023/10/10 01:14:03;;;;;;;28.40;17.80;;;;;;;6.15;92.18;101084.24;106305;1261;99058;-81
2023/10/10 01:16:54;;;;;;;28.60;17.20;;;;;;;6.15;92.12;101086.07;106143;1260;96622;-82
2023/10/10 01:19:44;;;;;;;23.70;16.60;;;;;;;6.13;92.00;101085.52;106266;1267;97178;-82
2023/10/10 01:22:40;;;;;;;23.70;17.20;;;;;;;6.12;91.89;101088.72;106197;1263;100038;-82
2023/10/10 01:28:23;;;;;;;24.20;16.70;;;;;;;6.08;92.37;101088.93;105994;1260;99073;-82
2023/10/10 01:31:11;;;;;;;24.90;17.70;;;;;;;6.06;92.46;101084.63;106210;1263;97814;-83
2023/10/10 01:34:00;;;;;;;25.10;16.50;;;;;;;6.05;92.51;101086.38;106303;1263;96425;-82
2023/10/10 01:36:50;;;;;;;25.80;16.80;;;;;;;6.02;92.20;101086.97;106104;1261;100067;-82
2023/10/10 01:40:11;;;;;;;24.00;16.60;;;;;;;5.98;91.58;101091.47;106080;1259;100564;-84
2023/10/10 01:42:59;;;;;;;21.50;15.70;;;;;;;5.88;90.98;101094.34;106245;1260;99004;-83
2023/10/10 01:45:48;;;;;;;25.30;15.70;;;;;;;5.80;91.15;101090.27;106152;1261;96582;-82
2023/10/10 01:48:43;;;;;;;22.90;16.10;;;;;;;5.74;90.90;101090.66;106054;1260;96631;-82
2023/10/10 01:51:33;;;;;;;23.50;16.40;;;;;;;5.71;90.98;101094.40;106157;1259;100089;-82
2023/10/10 01:54:19;;;;;;;23.90;16.70;;;;;;;5.66;90.73;101093.42;106160;1260;99861;-81
2023/10/10 01:57:07;;;;;;;23.20;15.80;;;;;;;5.61;90.47;101092.64;106221;1266;97777;-82
2023/10/10 01:59:53;;;;;;;23.70;15.40;;;;;;;5.57;90.41;101090.95;106279;1261;96551;-82
2023/10/10 02:02:41;;;;;;;23.40;15.20;;;;;;;5.53;90.56;101091.48;106599;1261;95913;-82
2023/10/10 02:08:22;;;;;;;26.30;17.00;;;;;;;5.46;90.96;101089.37;106078;1264;99237;-83
2023/10/10 02:11:08;;;;;;;25.50;17.30;;;;;;;5.45;90.91;101088.64;106115;1260;98543;-82
2023/10/10 02:13:58;;;;;;;24.90;16.90;;;;;;;5.42;90.83;101093.11;106299;1259;98070;-81
2023/10/10 02:16:47;;;;;;;27.50;17.70;;;;;;;5.40;90.84;101098.34;106195;1260;96641;-81
2023/10/10 02:19:39;;;;;;;28.60;17.90;;;;;;;5.36;90.68;101104.52;106302;1259;100328;-82
2023/10/10 02:22:47;;;;;;;29.30;17.90;;;;;;;5.33;90.54;101105.19;106383;1260;99212;-82
2023/10/10 02:28:20;;;;;;;29.30;17.60;;;;;;;5.28;90.38;101105.77;106135;1260;96728;-82
2023/10/10 02:31:09;;;;;;;26.10;18.00;;;;;;;5.26;90.31;101104.58;106185;1261;96549;-82
2023/10/10 02:33:58;;;;;;;29.20;17.80;;;;;;;5.23;90.35;101101.14;106105;1264;122372;-82
2023/10/10 02:36:44;;;;;;;26.80;18.10;;;;;;;5.22;90.20;101104.13;106265;1259;99900;-81
2023/10/10 02:39:32;;;;;;;27.40;17.70;;;;;;;5.19;90.20;101105.92;106167;1261;99026;-82
2023/10/10 02:42:20;;;;;;;27.10;17.10;;;;;;;5.18;90.31;101108.74;106148;1264;96664;-82
2023/10/10 02:45:07;;;;;;;27.00;17.60;;;;;;;5.16;90.42;101109.91;108214;1260;93581;-82
2023/10/10 02:47:54;;;;;;;25.60;17.50;;;;;;;5.16;90.40;101108.73;108262;1260;99937;-83
2023/10/10 02:50:40;;;;;;;24.60;17.20;;;;;;;5.16;90.63;101109.99;107594;1261;99232;-82
2023/10/10 02:53:32;;;;;;;24.20;16.10;;;;;;;5.13;90.70;101109.68;106180;1260;98843;-82
2023/10/10 02:56:18;;;;;;;25.80;16.30;;;;;;;5.11;90.52;101108.59;106219;1263;96742;-82
2023/10/10 02:59:05;;;;;;;24.20;16.60;;;;;;;5.08;90.33;101109.77;106192;1260;96533;-83
2023/10/10 03:01:57;;;;;;;30.50;17.60;;;;;;;5.04;89.98;101114.92;106156;1260;101399;-82
2023/10/10 03:04:52;;;;;;;27.80;18.00;;;;;;;5.00;89.96;101114.30;106185;1263;100468;-82
2023/10/10 03:07:41;;;;;;;27.50;16.80;;;;;;;4.96;89.96;101115.30;106199;1265;98372;-82
2023/10/10 03:10:37;;;;;;;27.00;17.90;;;;;;;4.93;89.96;101113.51;106195;1264;97738;-81
2023/10/10 03:13:48;;;;;;;24.40;17.20;;;;;;;4.88;90.19;101111.96;106231;1260;96617;-83
2023/10/10 03:16:44;;;;;;;22.90;13.60;;;;;;;4.85;90.10;101105.36;106325;1264;100720;-83
2023/10/10 03:19:38;;;;;;;23.60;15.50;;;;;;;4.83;90.11;101104.17;106084;1259;99171;-81
2023/10/10 03:25:23;;;;;;;21.90;15.50;;;;;;;4.77;89.98;101113.36;106210;1260;96695;-84
2023/10/10 03:28:18;;;;;;;24.30;16.60;;;;;;;4.75;90.09;101115.45;106116;1260;96850;-83
2023/10/10 03:37:38;;;;;;;26.50;15.90;;;;;;;4.67;90.15;101129.45;106344;1264;97737;-84
2023/10/10 05:24:51;;;;;;;38.90;23.10;;;;;;;3.73;90.23;101186.64;106197;1260;98998;-80
2023/10/10 05:27:41;;;;;;;38.00;24.80;;;;;;;3.73;90.04;101189.32;106132;1259;96666;-82
2023/10/10 05:30:27;;;;;;;36.30;21.50;;;;;;;3.72;90.43;101190.27;108253;1259;94151;-82
2023/10/10 05:33:14;;;;;;;31.70;19.80;;;;;;;3.74;90.89;101195.77;108189;1259;100087;-82
2023/10/10 05:36:06;;;;;;;28.40;20.30;;;;;;;3.76;91.17;101197.33;106135;1260;99177;-81
2023/10/10 05:38:51;;;;;;;31.70;21.20;;;;;;;3.76;91.49;101199.08;106417;1259;97774;-82
2023/10/10 05:41:40;;;;;;;28.50;20.30;;;;;;;3.76;91.54;101203.51;106217;1259;96726;-81
2023/10/10 05:44:26;;;;;;;30.10;20.00;;;;;;;3.76;91.66;101207.60;106266;1260;97262;-82
2023/10/10 05:47:11;;;;;;;26.60;19.30;;;;;;;3.78;91.77;101213.98;106195;1262;101359;-82
2023/10/10 05:49:57;;;;;;;29.60;19.60;;;;;;;3.79;91.80;101221.64;106158;1261;100439;-82
2023/10/10 05:52:43;;;;;;;33.60;20.80;;;;;;;3.82;92.07;101224.05;106325;1260;98453;-82
2023/10/10 05:55:33;;;;;;;31.10;20.70;;;;;;;3.85;92.44;101224.83;106140;1263;96629;-82
2023/10/10 05:58:22;;;;;;;31.00;20.70;;;;;;;3.87;92.27;101228.50;106310;1259;96774;-82
2023/10/10 06:01:12;;;;;;;34.80;23.40;;;;;;;3.90;92.47;101227.63;106229;1259;100042;-82
2023/10/10 06:03:57;;;;;;;32.00;22.80;;;;;;;3.92;92.54;101227.63;106426;1264;100644;-82
2023/10/10 06:06:43;;;;;;;34.00;23.80;;;;;;;3.95;92.48;101233.74;106276;1259;97828;-81
2023/10/10 06:09:33;;;;;;;33.50;23.00;;;;;;;3.97;92.47;101236.39;106206;1260;96734;-83
2023/10/10 06:12:19;;;;;;;;;;;;;;;3.99;92.42;101232.52;106184;1260;96696;-82
2023/10/10 06:15:07;;;;;;;33.50;22.80;;;;;;;4.00;92.66;101236.69;106178;1260;100093;-82
2023/10/10 06:17:57;;;;;;;37.20;23.80;;;;;;;4.03;92.92;101241.86;106245;1264;99127;-82
2023/10/10 06:20:45;;;;;;;36.10;23.20;;;;;;;4.08;93.30;101246.08;106243;1265;97835;-82
2023/10/10 06:23:33;;;;;;;36.90;24.10;;;;;;;4.13;93.59;101244.20;106299;1259;96616;-83
2023/10/10 06:26:21;;;;;;;37.20;24.00;;;;;;;4.18;93.72;101245.70;106313;1259;96958;-82
2023/10/10 06:29:08;;;;;;;34.20;23.00;;;;;;;4.22;93.77;101249.95;106182;1261;100072;-81
2023/10/10 06:31:53;;;;;;;33.90;24.10;;;;;;;4.26;94.04;101249.64;106369;1259;99824;-82
2023/10/10 06:34:39;;;;;;;36.20;23.60;;;;;;;4.30;94.33;101255.94;106311;1259;97840;-81
2023/10/10 06:37:27;;;;;;;33.50;23.10;;;;;;;4.37;95.16;101261.56;106203;1261;96848;-83
2023/10/10 06:40:14;;;;;;;32.80;22.90;;;;;;;4.43;96.00;101263.20;106229;1264;96618;-83
2023/10/10 06:43:01;;;;;;;36.40;24.30;;;;;;;4.49;96.62;101263.55;106256;1259;101328;-82
2023/10/10 06:45:54;;;;;;;34.00;24.30;;;;;;;4.55;97.11;101266.35;106124;1259;99112;-83
2023/10/10 06:48:40;;;;;;;37.80;23.70;;;;;;;4.61;97.48;101268.27;106191;1260;98788;-82
2023/10/10 06:51:28;;;;;;;35.80;24.70;;;;;;;4.68;97.91;101270.17;106255;1260;96694;-86
2023/10/10 06:54:34;;;;;;;38.70;25.00;;;;;;;4.77;98.28;101268.02;106076;1259;97059;-83
2023/10/10 06:57:21;;;;;;;36.20;24.00;;;;;;;4.87;98.69;101272.44;106196;1264;101040;-85
2023/10/10 07:00:20;;;;;;;36.90;25.20;;;;;;;4.96;99.24;101274.23;106266;1259;99094;-88
2023/10/10 07:03:06;;;;;;;40.70;26.60;;;;;;;5.06;99.54;101273.73;106888;1259;97841;-83
2023/10/10 07:05:52;;;;;;;36.20;25.20;;;;;;;5.15;99.73;101269.40;106145;1262;96603;-85
2023/10/10 07:08:38;;;;;;;37.60;26.70;;;;;;;5.24;99.94;101273.48;105833;1259;97234;-85
2023/10/10 07:11:23;;;;;;;38.00;26.90;;;;;;;5.33;99.87;101270.17;106180;1259;100114;-87
2023/10/10 07:14:11;;;;;;;36.50;26.20;;;;;;;5.43;99.99;101268.97;106382;1259;99240;-91
2023/10/10 07:17:01;;;;;;;39.20;25.00;;;;;;;5.52;100.00;101265.52;106286;1259;99153;-91
2023/10/10 07:22:52;;;;;;;34.70;24.50;;;;;;;5.69;100.00;101264.63;105912;1261;96675;-83
2023/10/10 07:25:57;;;;;;;35.40;24.30;;;;;;;5.79;100.00;101266.90;105782;1259;101401;-84
2023/10/10 07:28:49;;;;;;;35.30;23.80;;;;;;;5.89;100.00;101266.20;106037;1262;99085;-85
2023/10/10 07:31:40;;;;;;;35.60;24.10;;;;;;;5.99;100.00;101263.27;105819;1260;97736;-86
2023/10/10 07:34:34;;;;;;;33.50;23.10;;;;;;;6.09;100.00;101258.40;106175;1259;96597;-85
2023/10/10 07:37:27;;;;;;;33.70;23.80;;;;;;;6.19;100.00;101258.73;106094;1261;96639;-86
2023/10/10 07:43:03;;;;;;;34.70;25.30;;;;;;;6.39;100.00;101260.80;105544;1264;100437;-81
2023/10/10 07:45:52;;;;;;;32.80;23.20;;;;;;;6.48;100.00;101256.33;106204;1259;98979;-82
2023/10/10 07:51:29;;;;;;;35.00;22.40;;;;;;;6.68;100.00;101260.45;106508;1259;97039;-81
2023/10/10 07:54:28;;;;;;;29.50;20.20;;;;;;;6.78;100.00;101257.77;106236;1263;100808;-82
2023/10/10 07:57:17;;;;;;;30.80;20.80;;;;;;;6.88;100.00;101255.00;106355;1259;99404;-88
2023/10/10 08:00:06;;;;;;;28.90;21.00;;;;;;;7.00;100.00;101257.19;106015;1258;99079;-87
2023/10/10 08:02:57;;;;;;;27.20;18.80;;;;;;;7.10;100.00;101256.04;105957;1264;96635;-83
2023/10/10 08:05:43;;;;;;;29.70;19.80;;;;;;;7.19;100.00;101254.30;106027;1264;96700;-84
2023/10/10 08:08:31;;;;;;;27.70;19.10;;;;;;;7.29;100.00;101250.82;106009;1260;100072;-85
2023/10/10 08:11:35;;;;;;;24.80;18.20;;;;;;;7.38;100.00;101251.52;105849;1259;100449;-86
2023/10/10 08:15:19;;;;;;;25.10;17.30;;;;;;;7.47;100.00;101249.32;106576;1259;99274;-91
2023/10/10 08:21:48;;;;;;;20.10;14.50;;;;;;;7.70;100.00;101242.75;106374;1259;96538;-88
2023/10/10 08:24:34;;;;;;;20.30;15.40;;;;;;;7.80;99.95;101240.50;106291;1259;101263;-83
2023/10/10 08:27:22;;;;;;;26.70;17.30;;;;;;;7.90;99.99;101237.15;106332;1262;99158;-87
2023/10/10 08:30:13;;;;;;;21.40;13.40;;;;;;;8.02;99.96;101232.98;106542;1259;97887;-87
2023/10/10 08:33:00;;;;;;;17.50;12.20;;;;;;;8.14;99.54;101233.69;106234;1259;97161;-84
2023/10/10 08:35:46;;;;;;;16.30;11.10;;;;;;;8.23;98.65;101231.30;106311;1262;95807;-84
2023/10/10 08:38:33;;;;;;;14.80;10.70;;;;;;;8.32;98.33;101232.51;106285;1259;101867;-86
2023/10/10 08:41:27;;;;;;;14.50;10.20;;;;;;;8.40;97.74;101234.70;106259;1263;100596;-89
2023/10/10 08:44:19;;;;;;;17.10;10.90;;;;;;;8.50;97.37;101238.66;106364;1265;97788;-87
2023/10/10 08:47:32;;;;;;;14.50;9.40;;;;;;;8.62;97.27;101242.66;106434;1259;95858;-88
2023/10/10 08:50:18;;;;;;;12.90;9.70;;;;;;;8.72;96.54;101235.64;106445;1259;97002;-87
2023/10/10 08:53:05;;;;;;;14.70;9.80;;;;;;;8.80;96.15;101233.88;106447;1259;101144;-89
2023/10/10 08:55:57;;;;;;;15.60;10.00;;;;;;;8.89;96.01;101234.59;106124;1264;100599;-80
2023/10/10 08:58:42;;;;;;;10.30;8.50;;;;;;;8.98;95.49;101234.88;106484;1259;98468;-80
2023/10/10 09:01:33;;;;;;;10.60;7.70;;;;;;;9.06;94.95;101234.50;105654;1263;96609;-81
2023/10/10 09:04:19;;;;;;;9.80;7.50;;;;;;;9.14;94.15;101234.69;105947;1260;96949;-84
2023/10/10 09:07:08;;;;;;;10.20;6.80;;;;;;;9.23;93.89;101236.77;105834;1264;100128;-84
2023/10/10 09:10:04;;;;;;;8.50;6.00;;;;;;;9.32;93.41;101236.23;105999;1259;99011;-84
2023/10/10 09:12:53;;;;;;;9.60;7.00;;;;;;;9.39;92.82;101236.17;106017;1259;98992;-87
2023/10/10 09:15:54;;;;;;;11.70;7.80;;;;;;;9.47;92.27;101236.89;105926;1259;96716;-86
2023/10/10 09:18:40;;;;;;;8.10;6.30;;;;;;;9.56;91.99;101232.52;106033;1259;96632;-86
2023/10/10 09:21:25;;;;;;;8.50;6.60;;;;;;;9.64;91.62;101238.92;106321;1259;100122;-90
2023/10/10 09:24:27;;;;;;;7.70;6.10;;;;;;;9.71;91.33;101236.77;106254;1259;101470;-87
2023/10/10 09:27:21;;;;;;;7.50;6.70;;;;;;;9.78;91.09;101236.84;106175;1259;98593;-88
2023/10/10 09:30:09;;;;;;;7.60;6.00;;;;;;;9.87;90.58;101240.68;106241;1265;96550;-81
2023/10/10 09:33:02;;;;;;;8.10;6.30;;;;;;;9.95;90.05;101244.27;105777;1262;97191;-80
2023/10/10 09:35:58;;;;;;;9.70;5.70;;;;;;;10.04;89.74;101245.07;106695;1259;110148;-81
2023/10/10 09:38:46;;;;;;;7.90;6.30;;;;;;;10.10;89.33;101244.78;106361;1263;99191;-79
2023/10/10 09:44:49;;;;;;;7.70;5.50;;;;;;;10.25;88.88;101242.75;106303;1262;96626;-80
2023/10/10 09:47:52;;;;;;;6.50;5.60;;;;;;;10.33;88.07;101243.27;106014;1263;98425;-80
2023/10/10 09:50:45;;;;;;;7.70;5.80;;;;;;;10.41;87.63;101244.74;106046;1259;100020;-79
2023/10/10 09:53:40;;;;;;;7.00;5.10;;;;;;;10.47;87.00;101244.03;105999;1259;99972;-79
2023/10/10 09:56:25;;;;;;;6.60;5.30;;;;;;;10.54;86.41;101242.04;105757;1263;97752;-80
2023/10/10 09:59:12;;;;;;;8.30;5.10;;;;;;;10.60;86.09;101239.58;105828;1259;96614;-81
2023/10/10 10:02:04;;;;;;;6.70;5.10;;;;;;;10.67;85.89;101242.38;106084;1263;96520;-80
2023/10/10 10:04:53;;;;;;;9.90;5.20;;;;;;;10.73;85.25;101237.36;105955;1259;100168;-80
2023/10/10 10:08:09;;;;;;;7.10;5.50;;;;;;;10.80;85.51;101233.19;106163;1259;99158;-80
2023/10/10 10:11:11;;;;;;;8.80;5.90;;;;;;;10.88;85.27;101233.91;106279;1259;99190;-79
2023/10/10 10:14:15;;;;;;;7.30;5.60;;;;;;;10.93;83.79;101234.25;106271;1260;96517;-80
2023/10/10 10:17:12;;;;;;;6.20;4.40;;;;;;;10.93;82.93;101228.81;106410;1263;97138;-80
2023/10/10 10:20:20;;;;;;;6.10;4.40;;;;;;;10.97;82.75;101228.23;106384;1262;100632;-81
2023/10/10 10:23:06;;;;;;;6.90;4.90;;;;;;;11.02;82.77;101222.78;106550;1259;100930;-81
2023/10/10 10:25:54;;;;;;;6.00;4.80;;;;;;;11.10;82.42;101217.05;106413;1259;99003;-81
2023/10/10 10:28:43;;;;;;;5.80;4.10;;;;;;;11.18;82.28;101218.38;106251;1262;97209;-81
2023/10/10 10:31:34;;;;;;;5.90;4.30;;;;;;;11.25;81.82;101215.16;106379;1260;97278;-80
2023/10/10 10:34:24;;;;;;;6.00;4.00;;;;;;;11.29;81.03;101211.21;106317;1259;100147;-80
2023/10/10 10:37:23;;;;;;;4.70;3.70;;;;;;;11.35;81.52;101206.95;106437;1263;99138;-79
2023/10/10 10:42:58;;;;;;;5.20;4.00;;;;;;;11.50;80.82;101199.29;106334;1260;96615;-79
2023/10/10 10:46:07;;;;;;;6.00;4.10;;;;;;;11.57;80.26;101199.66;106441;1259;97490;-81
2023/10/10 10:49:05;;;;;;;5.90;4.10;;;;;;;11.61;79.50;101198.33;106520;1263;100090;-80
2023/10/10 10:52:14;;;;;;;4.90;3.50;;;;;;;11.65;79.10;101196.99;106716;1262;99109;-80
2023/10/10 10:55:18;;;;;;;5.70;4.20;;;;;;;11.69;78.71;101198.17;106602;1259;98991;-81
2023/10/10 10:58:08;;;;;;;4.70;3.50;;;;;;;11.72;78.67;101196.20;108234;1259;94241;-81
2023/10/10 11:01:07;;;;;;;4.40;3.00;;;;;;;11.77;78.48;101192.38;106725;1263;96608;-80
2023/10/10 11:03:56;;;;;;;4.30;3.20;;;;;;;11.83;78.51;101190.64;106606;1259;100023;-80
2023/10/10 11:06:50;;;;;;;4.60;3.00;;;;;;;11.89;78.46;101185.02;106550;1263;99095;-81
2023/10/10 11:09:43;;;;;;;3.70;2.90;;;;;;;11.96;77.85;101181.20;106588;1265;97719;-81
2023/10/10 11:12:32;;;;;;;6.70;3.50;;;;;;;12.01;77.64;101182.52;106085;1263;96539;-80
2023/10/10 11:15:17;;;;;;;4.60;3.50;;;;;;;12.03;77.04;101185.54;106019;1261;97232;-81
2023/10/10 11:18:07;;;;;;;5.00;2.80;;;;;;;12.06;76.69;101186.09;106568;1259;101701;-81
2023/10/10 11:21:06;;;;;;;5.20;3.70;;;;;;;12.06;75.77;101185.26;106613;1259;100895;-82
2023/10/10 11:23:52;;;;;;;5.40;3.10;;;;;;;12.08;75.56;101182.43;106792;1259;99344;-81
2023/10/10 11:26:39;;;;;;;6.00;3.50;;;;;;;12.12;75.62;101184.77;106574;1264;96617;-82
2023/10/10 11:29:28;;;;;;;5.00;3.70;;;;;;;12.19;76.29;101185.05;106692;1259;96681;-82
2023/10/10 11:32:16;;;;;;;4.60;3.10;;;;;;;12.27;75.98;101188.15;106570;1260;100597;-82
2023/10/10 11:38:15;;;;;;;4.40;2.80;;;;;;;12.41;74.55;101185.89;106615;1259;97815;-82
2023/10/10 11:41:08;;;;;;;3.90;2.80;;;;;;;12.48;74.38;101183.47;106658;1262;96444;-81
2023/10/10 11:44:01;;;;;;;6.10;3.00;;;;;;;12.55;73.97;101185.88;106503;1259;97259;-82
2023/10/10 11:46:49;;;;;;;5.30;2.80;;;;;;;12.56;73.15;101189.58;106548;1263;100009;-82
2023/10/10 11:49:35;;;;;;;5.20;2.70;;;;;;;12.57;73.07;101183.84;106635;1259;99091;-82
2023/10/10 11:52:20;;;;;;;4.00;2.90;;;;;;;12.60;72.75;101184.90;106682;1259;97871;-81
2023/10/10 11:55:08;;;;;;;2.80;2.20;;;;;;;12.63;72.33;101179.63;106690;1259;96607;-82
2023/10/10 11:57:58;;;;;;;5.10;2.30;;;;;;;12.67;72.13;101175.17;106704;1259;96610;-82
2023/10/10 12:00:59;;;;;;;6.50;2.70;;;;;;;12.70;71.22;101170.91;106676;1259;101307;-81
2023/10/10 12:03:45;;;;;;;6.00;3.30;;;;;;;12.72;71.15;101169.17;106918;1259;100798;-82
2023/10/10 12:06:30;;;;;;;5.30;3.00;;;;;;;12.77;71.21;101161.76;106649;1260;99074;-82
2023/10/10 12:09:19;;;;;;;4.80;2.70;;;;;;;12.82;71.45;101159.86;106665;1264;96516;-81
2023/10/10 12:12:04;;;;;;;4.30;2.80;;;;;;;12.88;71.39;101156.92;106664;1263;97140;-81
2023/10/10 12:14:50;;;;;;;7.80;2.30;;;;;;;12.94;70.50;101158.23;106689;1259;100155;-81
2023/10/10 12:17:38;;;;;;;4.90;2.90;;;;;;;12.97;70.00;101154.60;106758;1260;99861;-81
2023/10/10 12:20:25;;;;;;;5.20;2.80;;;;;;;12.99;69.55;101153.59;106660;1259;97848;-81
2023/10/10 12:23:11;;;;;;;3.30;2.40;;;;;;;13.01;69.63;101148.36;106752;1259;96527;-82
2023/10/10 12:25:59;;;;;;;5.10;2.50;;;;;;;13.05;69.27;101150.92;106604;1265;96629;-81
2023/10/10 12:28:48;;;;;;;4.70;2.70;;;;;;;13.10;69.18;101149.64;106667;1260;100010;-81
2023/10/10 12:31:33;;;;;;;4.20;2.70;;;;;;;13.14;69.25;101145.18;106529;1263;99053;-79
2023/10/10 12:34:21;;;;;;;4.10;2.70;;;;;;;13.18;69.46;101146.27;105824;1259;97852;-80
2023/10/10 12:37:07;;;;;;;4.50;2.90;;;;;;;13.22;69.77;101147.55;106143;1260;97387;-80
2023/10/10 12:39:53;;;;;;;6.10;3.40;;;;;;;13.29;69.68;101147.65;106483;1260;96487;-80
2023/10/10 12:42:39;;;;;;;8.90;2.90;;;;;;;13.34;69.11;101149.33;106048;1259;100122;-80
2023/10/10 12:45:24;;;;;;;4.60;2.90;;;;;;;13.40;68.78;101150.06;105580;1259;99150;-78
2023/10/10 12:48:20;;;;;;;4.80;2.50;;;;;;;13.43;68.25;101146.36;106042;1262;99132;-80
2023/10/10 12:51:09;;;;;;;4.10;2.20;;;;;;;13.49;68.41;101145.30;106063;1260;96614;-80
2023/10/10 12:54:04;;;;;;;4.20;2.50;;;;;;;13.54;68.01;101145.61;106056;1265;96611;-80
2023/10/10 12:56:55;;;;;;;5.00;2.40;;;;;;;13.58;67.33;101141.95;106230;1259;100661;-80
2023/10/10 12:59:46;;;;;;;4.10;2.60;;;;;;;13.58;66.70;101141.25;106578;1264;99342;-81
2023/10/10 13:02:31;;;;;;;4.90;2.40;;;;;;;13.59;66.85;101138.45;106427;1265;99019;-81
2023/10/10 13:05:17;;;;;;;6.10;2.90;;;;;;;13.62;66.89;101140.30;106516;1264;96531;-81
2023/10/10 13:08:06;;;;;;;4.00;2.50;;;;;;;13.64;65.86;101139.44;106496;1259;97060;-81
2023/10/10 13:10:55;;;;;;;7.50;2.90;;;;;;;13.63;65.69;101136.03;106444;1265;100021;-80
2023/10/10 13:13:45;;;;;;;3.60;2.20;;;;;;;13.63;65.43;101126.27;106451;1259;99083;-81
2023/10/10 13:19:32;;;;;;;8.60;3.70;;;;;;;13.67;65.45;101114.07;106320;1259;98561;-81
2023/10/10 13:22:20;;;;;;;7.20;2.50;;;;;;;13.66;65.45;101111.59;106407;1259;97033;-81
2023/10/10 13:25:09;;;;;;;5.10;3.60;;;;;;;13.69;65.45;101106.81;106606;1259;100113;-81
2023/10/10 13:27:55;;;;;;;4.90;2.70;;;;;;;13.70;64.89;101103.91;106948;1259;100377;-81
2023/10/10 13:30:41;;;;;;;4.60;2.30;;;;;;;13.71;64.62;101102.93;106390;1259;97727;-80
2023/10/10 13:33:27;;;;;;;4.60;2.50;;;;;;;13.71;64.19;101100.52;106585;1263;96154;-83
2023/10/10 13:36:15;;;;;;;4.00;2.40;;;;;;;13.71;63.89;101097.67;106598;1263;95835;-82
2023/10/10 13:39:07;;;;;;;3.30;2.20;;;;;;;13.71;64.27;101095.06;106534;1264;100018;-81
2023/10/10 13:41:52;;;;;;;4.60;2.90;;;;;;;13.71;64.58;101092.15;106436;1259;100369;-81
2023/10/10 13:44:37;;;;;;;4.20;2.70;;;;;;;13.70;64.15;101086.11;106477;1263;97809;-81
2023/10/10 13:47:25;;;;;;;5.90;2.70;;;;;;;13.70;63.52;101084.66;106617;1263;96694;-81
2023/10/10 13:50:28;;;;;;;3.90;2.20;;;;;;;13.66;63.38;101077.80;106344;1264;97056;-81
2023/10/10 13:53:14;;;;;;;3.80;2.40;;;;;;;13.63;63.41;101077.59;106615;1263;101065;-81
2023/10/10 13:56:04;;;;;;;2.80;2.20;;;;;;;13.63;63.26;101076.19;106729;1264;99310;-81
2023/10/10 13:58:52;;;;;;;3.90;2.80;;;;;;;13.62;63.40;101076.98;106384;1259;98027;-80
2023/10/10 14:01:39;;;;;;;3.20;2.20;;;;;;;13.61;63.68;101073.28;106476;1260;97970;-81
2023/10/10 14:04:27;;;;;;;6.10;2.70;;;;;;;13.62;64.19;101067.81;106351;1265;99274;-81
2023/10/10 14:07:14;;;;;;;3.50;2.30;;;;;;;13.61;63.91;101062.70;106486;1259;101392;-80
2023/10/10 14:10:05;;;;;;;6.70;2.90;;;;;;;13.60;63.99;101065.98;106486;1260;99120;-81
2023/10/10 14:12:50;;;;;;;4.50;2.90;;;;;;;13.58;64.17;101064.56;106532;1259;97721;-82
2023/10/10 14:15:36;;;;;;;5.20;3.00;;;;;;;13.57;64.64;101061.13;106532;1264;97755;-81
2023/10/10 14:18:27;;;;;;;5.30;3.10;;;;;;;13.53;64.36;101061.78;106467;1259;98466;-84
2023/10/10 14:21:16;;;;;;;4.10;3.20;;;;;;;13.48;64.15;101063.15;106617;1263;101462;-81
2023/10/10 14:24:08;;;;;;;11.80;7.70;;;;;;;13.42;64.73;101063.21;106549;1259;100300;-81
2023/10/10 14:26:54;;;;;;;16.00;7.20;;;;;;;13.36;64.81;101061.02;106379;1259;97989;-82
2023/10/10 14:29:41;;;;;;;5.90;3.80;;;;;;;13.31;64.79;101062.74;106541;1259;97963;-83
2023/10/10 14:32:27;;;;;;;6.40;4.20;;;;;;;13.26;65.00;101060.27;106502;1264;126650;-82
2023/10/10 14:35:13;;;;;;;7.30;3.90;;;;;;;13.22;65.05;101065.27;106597;1264;103108;-82
2023/10/10 14:38:00;;;;;;;6.90;4.10;;;;;;;13.17;65.16;101070.73;106315;1260;99207;-80
2023/10/10 14:40:46;;;;;;;8.60;4.00;;;;;;;13.13;65.22;101070.30;106540;1259;97868;-80
2023/10/10 14:43:33;;;;;;;4.00;3.10;;;;;;;13.11;65.62;101074.38;106408;1262;98057;-80
2023/10/10 14:46:22;;;;;;;7.70;3.90;;;;;;;13.07;65.54;101077.73;106601;1259;98050;-80
2023/10/10 14:49:16;;;;;;;6.80;3.60;;;;;;;13.03;65.51;101075.11;106573;1260;101417;-81
2023/10/10 14:52:06;;;;;;;11.80;10.10;;;;;;;13.00;65.96;101070.33;106409;1262;100401;-80
2023/10/10 14:54:51;;;;;;;19.20;16.80;;;;;;;12.97;66.22;101063.41;106416;1260;99034;-82
2023/10/10 14:57:37;;;;;;;9.80;8.80;;;;;;;12.93;66.34;101063.86;106510;1265;97957;-80
2023/10/10 15:00:28;;;;;;;7.00;4.10;;;;;;;12.89;66.17;101066.84;106663;1259;98610;-80
2023/10/10 15:03:15;;;;;;;4.30;3.20;;;;;;;12.86;66.09;101069.49;106604;1264;101415;-80
2023/10/10 15:06:06;;;;;;;7.00;3.00;;;;;;;12.82;66.05;101069.23;106625;1260;100350;-80
2023/10/10 15:08:55;;;;;;;7.20;4.90;;;;;;;12.76;66.07;101070.10;106559;1262;99015;-81
2023/10/10 15:11:45;;;;;;;5.70;4.20;;;;;;;12.72;66.30;101072.23;106594;1260;97879;-81
2023/10/10 15:14:31;;;;;;;9.10;4.70;;;;;;;12.69;66.79;101076.17;106533;1261;99237;-81
2023/10/10 15:17:17;;;;;;;5.90;5.20;;;;;;;12.68;67.18;101074.73;106798;1259;101467;-81
2023/10/10 15:20:06;;;;;;;5.40;4.60;;;;;;;12.66;67.45;101080.52;106630;1259;99230;-82
2023/10/10 15:22:51;;;;;;;6.00;4.40;;;;;;;12.63;67.58;101080.05;106501;1263;97888;-80